createdAt,value
2018-11-11T00:00:22.411Z,100134.14
2018-11-11T00:01:24.582Z,100131.14
2018-11-11T00:02:26.331Z,100129.72
2018-11-11T00:03:28.080Z,100133.23
2018-11-11T00:04:29.864Z,100132.84
2018-11-11T00:05:31.628Z,100122.80
2018-11-11T00:06:34.810Z,100129.33
2018-11-11T00:07:36.566Z,100125.80
2018-11-11T00:08:38.322Z,100128.80
2018-11-11T00:09:40.117Z,100128.41
2018-11-11T00:10:41.882Z,100123.59
2018-11-11T00:11:43.976Z,100123.59
2018-11-11T00:12:45.722Z,100123.59
2018-11-11T00:13:47.516Z,100122.68
2018-11-11T00:14:49.289Z,100125.28
2018-11-11T00:15:51.434Z,100132.32
2018-11-11T00:16:53.274Z,100128.41
2018-11-11T00:20:45.104Z,100124.50
2018-11-11T00:21:46.871Z,100122.28
2018-11-11T00:22:48.638Z,100117.47
2018-11-11T00:23:50.410Z,100120.59
2018-11-11T00:24:53.028Z,100129.72
2018-11-11T00:25:54.824Z,100130.50
2018-11-11T00:26:56.571Z,100134.02
2018-11-11T00:27:58.384Z,100131.41
2018-11-11T00:29:00.142Z,100131.41
2018-11-11T00:30:02.017Z,100130.89
2018-11-11T00:31:03.798Z,100127.89
2018-11-11T00:32:05.681Z,100127.50
2018-11-11T00:33:07.413Z,100133.11
2018-11-11T00:34:09.194Z,100137.14
2018-11-11T00:35:11.167Z,100133.62
2018-11-11T00:36:12.942Z,100131.02
2018-11-11T00:37:14.703Z,100131.41
2018-11-11T00:38:16.482Z,100135.31
2018-11-11T00:39:18.227Z,100134.02
2018-11-11T00:40:19.986Z,100137.92
2018-11-11T00:41:21.888Z,100142.23
2018-11-11T00:42:23.634Z,100137.92
2018-11-11T00:43:25.374Z,100147.96
2018-11-11T00:44:27.182Z,100144.05
2018-11-11T00:45:28.939Z,100140.53
2018-11-11T00:46:30.737Z,100143.53
2018-11-11T00:47:32.507Z,100144.84
2018-11-11T00:48:34.254Z,100137.53
2018-11-11T00:49:35.995Z,100139.23
2018-11-11T00:50:37.744Z,100139.23
2018-11-11T00:51:39.518Z,100140.53
2018-11-11T00:52:41.347Z,100136.63
2018-11-11T00:53:43.115Z,100143.53
2018-11-11T00:54:44.851Z,100136.23
2018-11-11T00:55:46.604Z,100142.23
2018-11-11T00:56:48.369Z,100139.63
2018-11-11T00:57:50.121Z,100147.05
2018-11-11T00:58:51.857Z,100141.84
2018-11-11T00:59:53.598Z,100142.23
2018-11-11T01:00:55.343Z,100143.53
2018-11-11T01:01:57.117Z,100145.75
2018-11-11T01:02:58.887Z,100143.14
2018-11-11T01:04:00.642Z,100146.14
2018-11-11T01:05:02.408Z,100146.66
2018-11-11T01:06:04.174Z,100138.84
2018-11-11T01:07:05.961Z,100145.36
2018-11-11T01:08:07.734Z,100140.92
2018-11-11T01:09:09.490Z,100141.84
2018-11-11T01:10:11.860Z,100144.44
2018-11-11T01:11:13.605Z,100138.45
2018-11-11T01:12:15.514Z,100147.05
2018-11-11T01:13:17.159Z,100144.84
2018-11-11T01:14:18.911Z,100143.92
2018-11-11T01:15:20.687Z,100143.92
2018-11-11T01:16:22.459Z,100142.23
2018-11-11T01:17:24.232Z,100142.63
2018-11-11T01:18:25.986Z,100145.36
2018-11-11T01:19:27.753Z,100145.36
2018-11-11T01:20:29.518Z,100149.66
2018-11-11T01:21:31.273Z,100146.66
2018-11-11T01:22:33.056Z,100150.05
2018-11-11T01:23:34.826Z,100150.96
2018-11-11T01:24:36.567Z,100143.92
2018-11-11T01:25:38.427Z,100140.92
2018-11-11T01:26:40.198Z,100148.35
2018-11-11T01:27:42.174Z,100148.35
2018-11-11T01:28:43.929Z,100149.66
2018-11-11T01:29:45.667Z,100149.66
2018-11-11T01:30:47.421Z,100149.27
2018-11-11T01:31:49.181Z,100150.05
2018-11-11T01:32:50.958Z,100159.17
2018-11-11T01:33:52.700Z,100157.88
2018-11-11T01:34:54.449Z,100157.88
2018-11-11T01:35:56.411Z,100159.69
2018-11-11T01:36:58.163Z,100165.69
2018-11-11T01:37:59.930Z,100162.30
2018-11-11T01:39:01.676Z,100166.08
2018-11-11T01:40:03.424Z,100160.08
2018-11-11T01:41:05.462Z,100154.74
2018-11-11T01:42:07.437Z,100159.56
2018-11-11T01:43:09.211Z,100156.44
2018-11-11T01:44:10.957Z,100165.17
2018-11-11T01:45:14.319Z,100158.13
2018-11-11T01:46:16.055Z,100163.47
2018-11-11T01:47:17.808Z,100155.27
2018-11-11T01:48:19.583Z,100158.27
2018-11-11T01:49:21.347Z,100158.27
2018-11-11T01:50:23.097Z,100156.56
2018-11-11T01:51:24.829Z,100159.17
2018-11-11T01:52:26.571Z,100166.20
2018-11-11T01:53:28.347Z,100164.78
2018-11-11T01:54:30.109Z,100158.66
2018-11-11T01:55:31.867Z,100159.95
2018-11-11T01:56:33.657Z,100167.39
2018-11-11T01:57:35.475Z,100155.53
2018-11-11T01:58:37.531Z,100157.74
2018-11-11T01:59:39.281Z,100156.44
2018-11-11T02:00:41.053Z,100158.13
2018-11-11T02:01:42.813Z,100158.13
2018-11-11T02:02:45.425Z,100153.44
2018-11-11T02:03:47.203Z,100163.47
2018-11-11T02:04:48.953Z,100156.96
2018-11-11T02:05:50.714Z,100152.66
2018-11-11T02:06:52.461Z,100154.22
2018-11-11T02:07:54.272Z,100156.05
2018-11-11T02:08:56.048Z,100158.66
2018-11-11T02:09:58.054Z,100151.23
2018-11-11T02:10:59.775Z,100156.96
2018-11-11T02:12:01.546Z,100152.01
2018-11-11T02:13:03.296Z,100147.31
2018-11-11T02:14:05.080Z,100145.10
2018-11-11T02:15:06.852Z,100147.70
2018-11-11T02:16:08.608Z,100154.35
2018-11-11T02:17:10.372Z,100159.95
2018-11-11T02:18:12.144Z,100152.53
2018-11-11T02:19:13.914Z,100154.62
2018-11-11T02:20:17.939Z,100150.31
2018-11-11T02:21:19.700Z,100151.23
2018-11-11T02:22:21.459Z,100151.23
2018-11-11T02:23:23.203Z,100149.92
2018-11-11T02:24:24.991Z,100150.83
2018-11-11T02:25:26.741Z,100149.14
2018-11-11T02:26:28.487Z,100145.62
2018-11-11T02:27:30.240Z,100139.50
2018-11-11T02:28:31.996Z,100148.75
2018-11-11T02:29:33.778Z,100142.10
2018-11-11T02:30:35.539Z,100142.63
2018-11-11T02:31:37.289Z,100147.31
2018-11-11T02:32:39.489Z,100147.31
2018-11-11T02:33:41.251Z,100146.02
2018-11-11T02:34:43.038Z,100155.66
2018-11-11T02:35:44.789Z,100149.14
2018-11-11T02:36:46.539Z,100149.92
2018-11-11T02:37:48.284Z,100153.83
2018-11-11T02:38:50.073Z,100151.74
2018-11-11T02:39:51.866Z,100150.31
2018-11-11T02:40:53.631Z,100144.31
2018-11-11T02:41:55.384Z,100141.31
2018-11-11T02:42:57.133Z,100143.02
2018-11-11T02:43:58.878Z,100138.19
2018-11-11T02:45:00.658Z,100139.50
2018-11-11T02:46:02.408Z,100142.10
2018-11-11T02:47:04.166Z,100138.71
2018-11-11T02:48:05.905Z,100129.98
2018-11-11T02:49:07.661Z,100133.50
2018-11-11T02:50:10.368Z,100136.50
2018-11-11T02:51:12.128Z,100138.71
2018-11-11T02:52:13.886Z,100142.63
2018-11-11T02:53:15.645Z,100129.98
2018-11-11T02:54:17.407Z,100136.11
2018-11-11T02:55:19.190Z,100133.38
2018-11-11T02:56:20.946Z,100132.98
2018-11-11T02:57:22.697Z,100134.28
2018-11-11T02:58:24.475Z,100131.28
2018-11-11T02:59:26.218Z,100133.89
2018-11-11T03:00:27.990Z,100134.67
2018-11-11T03:01:29.734Z,100141.70
2018-11-11T03:02:31.472Z,100136.89
2018-11-11T03:03:33.238Z,100137.80
2018-11-11T03:04:35.073Z,100148.23
2018-11-11T03:05:36.799Z,100144.31
2018-11-11T03:06:38.565Z,100143.41
2018-11-11T03:07:40.327Z,100144.31
2018-11-11T03:08:42.088Z,100142.50
2018-11-11T03:09:43.834Z,100145.62
2018-11-11T03:10:45.608Z,100147.31
2018-11-11T03:11:47.349Z,100137.80
2018-11-11T03:12:50.018Z,100134.80
2018-11-11T03:13:51.763Z,100132.59
2018-11-11T03:14:53.503Z,100134.28
2018-11-11T03:15:55.280Z,100131.67
2018-11-11T03:16:57.028Z,100137.80
2018-11-11T03:17:58.803Z,100136.50
2018-11-11T03:19:00.550Z,100133.89
2018-11-11T03:20:02.311Z,100141.70
2018-11-11T03:21:04.084Z,100143.92
2018-11-11T03:22:05.851Z,100140.80
2018-11-11T03:23:07.617Z,100143.41
2018-11-11T03:24:09.365Z,100141.70
2018-11-11T03:25:12.530Z,100141.70
2018-11-11T03:26:14.294Z,100141.19
2018-11-11T03:27:16.045Z,100150.83
2018-11-11T03:28:17.788Z,100149.92
2018-11-11T03:29:19.546Z,100145.62
2018-11-11T03:30:21.304Z,100157.88
2018-11-11T03:31:23.449Z,100157.48
2018-11-11T03:32:25.214Z,100150.44
2018-11-11T03:33:26.971Z,100141.31
2018-11-11T03:34:28.710Z,100139.63
2018-11-11T03:35:30.458Z,100136.11
2018-11-11T03:36:32.243Z,100132.20
2018-11-11T03:37:34.006Z,100132.59
2018-11-11T03:38:35.749Z,100137.80
2018-11-11T03:39:37.500Z,100140.41
2018-11-11T03:40:39.241Z,100142.63
2018-11-11T03:41:41.023Z,100141.31
2018-11-11T03:42:43.065Z,100146.92
2018-11-11T03:43:44.822Z,100146.02
2018-11-11T03:44:46.575Z,100146.92
2018-11-11T03:45:48.317Z,100151.74
2018-11-11T03:46:50.082Z,100148.62
2018-11-11T03:47:52.511Z,100147.84
2018-11-11T03:48:54.303Z,100145.23
2018-11-11T03:49:56.072Z,100154.74
2018-11-11T03:50:57.825Z,100155.66
2018-11-11T03:51:59.599Z,100156.56
2018-11-11T03:53:01.336Z,100153.05
2018-11-11T03:54:03.086Z,100145.62
2018-11-11T03:55:04.846Z,100145.23
2018-11-11T03:56:06.682Z,100142.10
2018-11-11T03:57:08.467Z,100140.41
2018-11-11T03:58:10.210Z,100128.55
2018-11-11T03:59:11.948Z,100129.07
2018-11-11T04:00:14.925Z,100129.46
2018-11-11T04:01:16.663Z,100136.50
2018-11-11T04:02:18.452Z,100141.70
2018-11-11T04:03:20.218Z,100134.67
2018-11-11T04:04:22.018Z,100138.19
2018-11-11T04:05:23.786Z,100144.31
2018-11-11T04:06:25.567Z,100131.28
2018-11-11T04:07:27.364Z,100129.07
2018-11-11T04:08:29.113Z,100131.67
2018-11-11T04:09:30.872Z,100133.50
2018-11-11T04:10:32.652Z,100136.11
2018-11-11T04:11:34.401Z,100129.07
2018-11-11T04:12:36.182Z,100134.80
2018-11-11T04:13:37.957Z,100135.59
2018-11-11T04:14:39.692Z,100132.59
2018-11-11T04:15:41.440Z,100133.50
2018-11-11T04:16:43.184Z,100133.50
2018-11-11T04:17:45.170Z,100127.77
2018-11-11T04:18:46.927Z,100123.46
2018-11-11T04:19:48.708Z,100123.86
2018-11-11T04:20:50.467Z,100122.95
2018-11-11T04:21:52.213Z,100126.86
2018-11-11T04:22:53.986Z,100135.98
2018-11-11T04:23:55.727Z,100137.80
2018-11-11T04:24:57.455Z,100142.23
2018-11-11T04:25:59.197Z,100141.31
2018-11-11T04:27:00.947Z,100146.14
2018-11-11T04:28:02.723Z,100142.10
2018-11-11T04:29:04.482Z,100143.02
2018-11-11T04:30:06.222Z,100145.23
2018-11-11T04:31:07.959Z,100148.23
2018-11-11T04:32:10.141Z,100141.70
2018-11-11T04:33:11.915Z,100140.02
2018-11-11T04:34:14.060Z,100136.50
2018-11-11T04:35:15.809Z,100132.98
2018-11-11T04:36:17.608Z,100130.77
2018-11-11T04:37:19.360Z,100134.67
2018-11-11T04:38:21.114Z,100137.28
2018-11-11T04:39:22.967Z,100131.16
2018-11-11T04:40:24.662Z,100142.63
2018-11-11T04:41:26.787Z,100143.02
2018-11-11T04:42:28.549Z,100149.92
2018-11-11T04:43:30.316Z,100149.41
2018-11-11T04:44:32.063Z,100148.62
2018-11-11T04:45:33.806Z,100152.53
2018-11-11T04:46:35.633Z,100156.44
2018-11-11T04:47:37.331Z,100159.95
2018-11-11T04:48:39.099Z,100152.53
2018-11-11T04:49:40.847Z,100154.22
2018-11-11T04:50:42.596Z,100159.56
2018-11-11T04:51:44.423Z,100156.05
2018-11-11T04:52:46.727Z,100156.05
2018-11-11T04:53:48.484Z,100155.66
2018-11-11T04:54:50.316Z,100151.23
2018-11-11T04:55:52.080Z,100151.62
2018-11-11T04:56:53.827Z,100152.14
2018-11-11T04:57:55.557Z,100152.53
2018-11-11T04:58:57.324Z,100157.35
2018-11-11T04:59:59.071Z,100159.44
2018-11-11T05:01:00.832Z,100153.44
2018-11-11T05:02:02.588Z,100154.35
2018-11-11T05:03:05.340Z,100148.62
2018-11-11T05:04:07.134Z,100149.01
2018-11-11T05:05:09.959Z,100151.23
2018-11-11T05:06:11.731Z,100151.23
2018-11-11T05:07:13.473Z,100150.83
2018-11-11T05:08:15.224Z,100149.92
2018-11-11T05:09:17.016Z,100152.14
2018-11-11T05:10:18.765Z,100149.92
2018-11-11T05:11:20.509Z,100147.70
2018-11-11T05:12:22.273Z,100150.83
2018-11-11T05:13:24.030Z,100146.53
2018-11-11T05:14:25.808Z,100139.50
2018-11-11T05:15:27.562Z,100140.41
2018-11-11T05:16:29.307Z,100144.84
2018-11-11T05:17:31.062Z,100138.19
2018-11-11T05:18:32.816Z,100138.19
2018-11-11T05:19:34.594Z,100136.38
2018-11-11T05:20:36.359Z,100136.50
2018-11-11T05:21:38.159Z,100143.02
2018-11-11T05:22:40.057Z,100143.02
2018-11-11T05:23:41.798Z,100141.70
2018-11-11T05:24:43.561Z,100143.92
2018-11-11T05:25:45.295Z,100142.23
2018-11-11T05:26:47.036Z,100147.05
2018-11-11T05:27:48.778Z,100152.27
2018-11-11T05:28:50.525Z,100149.66
2018-11-11T05:29:52.296Z,100149.27
2018-11-11T05:30:54.072Z,100153.17
2018-11-11T05:31:55.831Z,100150.96
2018-11-11T05:32:57.590Z,100155.39
2018-11-11T05:33:59.335Z,100156.70
2018-11-11T05:35:01.102Z,100156.70
2018-11-11T05:36:02.842Z,100159.30
2018-11-11T05:37:04.594Z,100158.39
2018-11-11T05:38:06.355Z,100155.39
2018-11-11T05:39:08.111Z,100161.52
2018-11-11T05:40:10.817Z,100171.16
2018-11-11T05:41:12.582Z,100162.81
2018-11-11T05:42:14.341Z,100162.03
2018-11-11T05:43:16.109Z,100168.20
2018-11-11T05:44:17.875Z,100165.95
2018-11-11T05:45:19.644Z,100166.89
2018-11-11T05:46:21.440Z,100170.02
2018-11-11T05:47:23.195Z,100163.50
2018-11-11T05:48:24.947Z,100171.06
2018-11-11T05:49:26.713Z,100164.41
2018-11-11T05:50:28.499Z,100160.62
2018-11-11T05:51:30.258Z,100160.50
2018-11-11T05:52:32.943Z,100161.93
2018-11-11T05:53:34.690Z,100158.93
2018-11-11T05:54:36.449Z,100161.93
2018-11-11T05:55:38.220Z,100167.27
2018-11-11T05:56:39.961Z,100168.06
2018-11-11T05:57:41.805Z,100165.45
2018-11-11T05:58:43.559Z,100165.58
2018-11-11T05:59:45.320Z,100163.88
2018-11-11T06:00:47.094Z,100168.31
2018-11-11T06:01:48.847Z,100168.31
2018-11-11T06:02:50.604Z,100167.53
2018-11-11T06:03:52.365Z,100168.70
2018-11-11T06:04:54.115Z,100170.92
2018-11-11T06:05:55.892Z,100168.31
2018-11-11T06:06:57.645Z,100170.53
2018-11-11T06:07:59.390Z,100172.74
2018-11-11T06:09:01.134Z,100170.66
2018-11-11T06:10:02.875Z,100175.08
2018-11-11T06:11:04.655Z,100170.26
2018-11-11T06:12:06.398Z,100171.95
2018-11-11T06:13:08.141Z,100169.74
2018-11-11T06:14:09.902Z,100168.83
2018-11-11T06:15:12.596Z,100174.95
2018-11-11T06:16:14.365Z,100174.17
2018-11-11T06:17:16.121Z,100174.56
2018-11-11T06:18:17.880Z,100177.69
2018-11-11T06:19:19.632Z,100180.30
2018-11-11T06:20:21.380Z,100177.69
2018-11-11T06:21:23.145Z,100183.81
2018-11-11T06:22:25.766Z,100177.17
2018-11-11T06:23:27.514Z,100179.78
2018-11-11T06:24:29.272Z,100177.17
2018-11-11T06:25:31.023Z,100180.30
2018-11-11T06:26:32.814Z,100180.30
2018-11-11T06:27:34.591Z,100180.17
2018-11-11T06:28:36.352Z,100184.99
2018-11-11T06:29:38.108Z,100182.39
2018-11-11T06:30:40.202Z,100182.00
2018-11-11T06:31:41.990Z,100181.60
2018-11-11T06:32:43.743Z,100181.08
2018-11-11T06:33:45.528Z,100179.78
2018-11-11T06:34:47.280Z,100182.91
2018-11-11T06:35:49.678Z,100181.08
2018-11-11T06:36:51.547Z,100189.94
2018-11-11T06:37:53.301Z,100184.08
2018-11-11T06:38:55.052Z,100194.12
2018-11-11T06:39:56.818Z,100190.99
2018-11-11T06:40:58.571Z,100193.98
2018-11-11T06:42:00.350Z,100185.78
2018-11-11T06:43:02.112Z,100188.78
2018-11-11T06:44:03.884Z,100190.99
2018-11-11T06:45:05.631Z,100191.78
2018-11-11T06:46:07.380Z,100194.91
2018-11-11T06:47:09.143Z,100199.73
2018-11-11T06:48:10.955Z,100191.26
2018-11-11T06:49:12.670Z,100190.08
2018-11-11T06:50:15.166Z,100187.08
2018-11-11T06:51:16.950Z,100185.65
2018-11-11T06:52:18.741Z,100190.47
2018-11-11T06:53:20.487Z,100190.47
2018-11-11T06:54:22.230Z,100190.86
2018-11-11T06:55:23.981Z,100188.26
2018-11-11T06:56:25.784Z,100189.17
2018-11-11T06:57:27.579Z,100192.56
2018-11-11T06:58:29.328Z,100190.86
2018-11-11T06:59:31.091Z,100193.47
2018-11-11T07:00:32.852Z,100196.98
2018-11-11T07:01:34.591Z,100202.59
2018-11-11T07:02:37.514Z,100199.08
2018-11-11T07:03:39.268Z,100194.25
2018-11-11T07:04:41.024Z,100203.37
2018-11-11T07:05:42.771Z,100195.17
2018-11-11T07:06:44.509Z,100200.77
2018-11-11T07:07:46.282Z,100199.47
2018-11-11T07:08:48.029Z,100196.98
2018-11-11T07:09:49.766Z,100201.69
2018-11-11T07:10:51.502Z,100198.95
2018-11-11T07:11:53.245Z,100203.37
2018-11-11T07:12:55.506Z,100207.29
2018-11-11T07:13:57.278Z,100202.47
2018-11-11T07:14:59.080Z,100205.08
2018-11-11T07:16:00.840Z,100206.37
2018-11-11T07:17:02.602Z,100205.47
2018-11-11T07:18:04.391Z,100201.95
2018-11-11T07:19:06.233Z,100208.98
2018-11-11T07:20:07.988Z,100203.77
2018-11-11T07:21:09.768Z,100205.86
2018-11-11T07:22:11.524Z,100211.08
2018-11-11T07:23:13.290Z,100209.77
2018-11-11T07:24:15.054Z,100205.34
2018-11-11T07:25:16.824Z,100211.08
2018-11-11T07:26:18.568Z,100209.77
2018-11-11T07:27:20.319Z,100210.55
2018-11-11T07:28:22.111Z,100207.95
2018-11-11T07:29:24.520Z,100209.77
2018-11-11T07:30:26.813Z,100207.03
2018-11-11T07:31:28.613Z,100214.59
2018-11-11T07:32:30.342Z,100212.38
2018-11-11T07:33:32.128Z,100210.95
2018-11-11T07:34:33.874Z,100215.38
2018-11-11T07:35:35.631Z,100208.34
2018-11-11T07:36:37.371Z,100211.08
2018-11-11T07:37:39.181Z,100215.77
2018-11-11T07:38:40.943Z,100220.59
2018-11-11T07:39:42.711Z,100213.16
2018-11-11T07:40:44.478Z,100220.98
2018-11-11T07:41:46.249Z,100214.86
2018-11-11T07:42:48.090Z,100209.64
2018-11-11T07:43:49.862Z,100218.38
2018-11-11T07:44:51.621Z,100222.67
2018-11-11T07:45:53.382Z,100218.38
2018-11-11T07:46:55.141Z,100219.16
2018-11-11T07:47:56.992Z,100223.20
2018-11-11T07:48:58.686Z,100225.28
2018-11-11T07:50:00.461Z,100224.89
2018-11-11T07:51:03.326Z,100222.16
2018-11-11T07:52:05.149Z,100223.46
2018-11-11T07:53:06.955Z,100231.28
2018-11-11T07:54:08.722Z,100222.55
2018-11-11T07:55:11.818Z,100222.16
2018-11-11T07:56:13.526Z,100224.77
2018-11-11T07:57:15.674Z,100226.06
2018-11-11T07:58:17.436Z,100223.98
2018-11-11T07:59:19.239Z,100222.28
2018-11-11T08:00:21.080Z,100223.85
2018-11-11T08:01:22.840Z,100225.28
2018-11-11T08:02:24.623Z,100226.20
2018-11-11T08:03:26.371Z,100226.20
2018-11-11T08:04:28.152Z,100231.41
2018-11-11T08:05:30.131Z,100223.59
2018-11-11T08:06:31.903Z,100227.89
2018-11-11T08:07:33.663Z,100224.50
2018-11-11T08:08:35.414Z,100223.59
2018-11-11T08:09:37.187Z,100228.54
2018-11-11T08:10:38.952Z,100229.33
2018-11-11T08:11:42.015Z,100225.94
2018-11-11T08:12:44.017Z,100223.33
2018-11-11T08:13:45.775Z,100220.33
2018-11-11T08:14:47.545Z,100221.62
2018-11-11T08:15:49.312Z,100219.02
2018-11-11T08:16:51.190Z,100221.23
2018-11-11T08:17:52.839Z,100221.23
2018-11-11T08:18:54.591Z,100220.84
2018-11-11T08:19:56.415Z,100215.76
2018-11-11T08:20:58.214Z,100222.67
2018-11-11T08:21:59.970Z,100219.15
2018-11-11T08:23:01.726Z,100222.67
2018-11-11T08:24:03.488Z,100229.19
2018-11-11T08:25:05.350Z,100226.31
2018-11-11T08:26:07.101Z,100228.53
2018-11-11T08:27:08.853Z,100230.10
2018-11-11T08:28:10.624Z,100228.41
2018-11-11T08:29:12.376Z,100233.75
2018-11-11T08:30:14.160Z,100236.36
2018-11-11T08:31:15.937Z,100233.75
2018-11-11T08:32:17.749Z,100236.87
2018-11-11T08:33:19.457Z,100233.36
2018-11-11T08:34:21.205Z,100235.57
2018-11-11T08:35:22.981Z,100234.66
2018-11-11T08:36:24.753Z,100233.36
2018-11-11T08:37:26.511Z,100235.05
2018-11-11T08:38:28.266Z,100235.18
2018-11-11T08:39:30.023Z,100234.27
2018-11-11T08:40:31.908Z,100236.65
2018-11-11T08:41:33.593Z,100230.87
2018-11-11T08:42:35.370Z,100234.40
2018-11-11T08:43:37.136Z,100232.18
2018-11-11T08:44:38.892Z,100231.44
2018-11-11T08:45:40.670Z,100237.95
2018-11-11T08:46:43.626Z,100234.04
2018-11-11T08:47:46.003Z,100232.18
2018-11-11T08:48:47.770Z,100237.17
2018-11-11T08:49:49.529Z,100236.78
2018-11-11T08:50:51.315Z,100238.47
2018-11-11T08:51:53.056Z,100236.39
2018-11-11T08:52:54.813Z,100232.47
2018-11-11T08:53:56.572Z,100238.59
2018-11-11T08:54:58.330Z,100244.34
2018-11-11T08:56:00.125Z,100239.52
2018-11-11T08:57:01.947Z,100238.59
2018-11-11T08:58:03.850Z,100237.30
2018-11-11T08:59:07.399Z,100232.20
2018-11-11T09:00:09.168Z,100231.30
2018-11-11T09:01:10.964Z,100233.91
2018-11-11T09:02:12.723Z,100239.12
2018-11-11T09:03:14.479Z,100238.20
2018-11-11T09:04:17.211Z,100242.64
2018-11-11T09:05:18.970Z,100242.25
2018-11-11T09:06:21.303Z,100239.25
2018-11-11T09:07:23.081Z,100239.12
2018-11-11T09:08:24.853Z,100241.47
2018-11-11T09:09:26.616Z,100247.98
2018-11-11T09:10:28.372Z,100250.59
2018-11-11T09:11:30.217Z,100254.11
2018-11-11T09:12:31.960Z,100251.89
2018-11-11T09:13:33.730Z,100252.80
2018-11-11T09:14:35.495Z,100252.41
2018-11-11T09:15:37.247Z,100257.23
2018-11-11T09:16:40.011Z,100257.63
2018-11-11T09:17:42.233Z,100258.16
2018-11-11T09:18:44.087Z,100256.33
2018-11-11T09:19:45.845Z,100255.94
2018-11-11T09:20:47.598Z,100252.94
2018-11-11T09:21:49.356Z,100251.63
2018-11-11T09:22:51.123Z,100255.16
2018-11-11T09:23:53.371Z,100259.45
2018-11-11T09:24:55.129Z,100249.28
2018-11-11T09:25:56.900Z,100254.63
2018-11-11T09:26:58.685Z,100252.41
2018-11-11T09:28:00.465Z,100253.72
2018-11-11T09:29:02.233Z,100257.23
2018-11-11T09:30:03.993Z,100256.33
2018-11-11T09:31:05.757Z,100258.02
2018-11-11T09:32:07.543Z,100258.94
2018-11-11T09:33:09.324Z,100263.76
2018-11-11T09:34:11.094Z,100259.84
2018-11-11T09:35:12.921Z,100263.76
2018-11-11T09:36:14.629Z,100259.84
2018-11-11T09:37:16.391Z,100253.84
2018-11-11T09:38:18.155Z,100251.11
2018-11-11T09:39:19.909Z,100246.41
2018-11-11T09:40:21.672Z,100252.02
2018-11-11T09:41:23.443Z,100254.76
2018-11-11T09:42:25.296Z,100252.55
2018-11-11T09:43:27.012Z,100253.06
2018-11-11T09:44:28.778Z,100253.45
2018-11-11T09:45:30.537Z,100249.02
2018-11-11T09:46:32.327Z,100244.59
2018-11-11T09:47:34.167Z,100244.20
2018-11-11T09:48:35.916Z,100252.55
2018-11-11T09:49:37.693Z,100247.72
2018-11-11T09:50:39.466Z,100249.41
2018-11-11T09:51:41.226Z,100248.63
2018-11-11T09:52:43.049Z,100255.67
2018-11-11T09:53:44.821Z,100254.89
2018-11-11T09:54:46.752Z,100247.06
2018-11-11T09:55:48.528Z,100250.84
2018-11-11T09:56:50.305Z,100251.23
2018-11-11T09:57:52.113Z,100253.45
2018-11-11T09:58:53.870Z,100264.28
2018-11-11T09:59:55.729Z,100251.63
2018-11-11T10:00:57.452Z,100258.55
2018-11-11T10:01:59.216Z,100250.72
2018-11-11T10:03:05.999Z,100256.45
2018-11-11T10:06:17.192Z,100254.63
2018-11-11T10:07:24.504Z,100254.63
2018-11-11T10:09:31.617Z,100249.02
2018-11-11T10:10:38.712Z,100249.41
2018-11-11T10:11:48.734Z,100246.41
2018-11-11T10:12:59.911Z,100245.89
2018-11-11T10:14:13.544Z,100248.11
2018-11-11T10:15:55.866Z,100243.81
2018-11-11T10:18:04.748Z,100244.20
2018-11-11T10:21:14.944Z,100245.62
2018-11-11T10:22:29.069Z,100241.98
2018-11-11T10:23:50.886Z,100244.20
2018-11-11T10:25:56.923Z,100244.72
2018-11-11T10:27:04.023Z,100243.81
2018-11-11T10:28:17.383Z,100247.33
2018-11-11T10:29:33.200Z,100243.41
2018-11-11T10:30:42.728Z,100251.23
2018-11-11T10:31:48.679Z,100252.55
2018-11-11T10:33:00.172Z,100248.23
2018-11-11T10:34:09.878Z,100249.55
2018-11-11T10:35:30.588Z,100252.16
2018-11-11T10:36:38.337Z,100257.36
2018-11-11T10:37:45.010Z,100246.02
2018-11-11T10:38:52.097Z,100254.89
2018-11-11T10:39:58.937Z,100256.06
2018-11-11T10:41:11.694Z,100257.76
2018-11-11T10:42:16.293Z,100261.28
2018-11-11T10:43:53.864Z,100261.28
2018-11-11T10:45:00.124Z,100259.06
2018-11-11T10:46:05.334Z,100265.19
2018-11-11T10:47:11.305Z,100256.84
2018-11-11T10:48:15.920Z,100257.76
2018-11-11T10:49:21.770Z,100264.80
2018-11-11T10:50:28.010Z,100264.02
2018-11-11T10:51:29.772Z,100264.80
2018-11-11T10:52:31.541Z,100258.67
2018-11-11T10:53:33.313Z,100262.19
2018-11-11T10:54:35.107Z,100260.89
2018-11-11T10:55:36.870Z,100261.67
2018-11-11T10:56:38.635Z,100262.97
2018-11-11T10:57:40.450Z,100260.76
2018-11-11T10:58:42.225Z,100259.45
2018-11-11T10:59:44.013Z,100263.37
2018-11-11T11:00:51.330Z,100258.94
2018-11-11T11:21:11.992Z,100262.58
2018-11-11T11:22:13.784Z,100263.89
2018-11-11T11:23:15.562Z,100265.97
2018-11-11T11:24:17.343Z,100258.16
2018-11-11T11:25:19.171Z,100267.41
2018-11-11T11:26:20.968Z,100271.31
2018-11-11T11:27:22.782Z,100265.19
2018-11-11T11:28:24.556Z,100266.10
2018-11-11T11:29:26.321Z,100271.84
2018-11-11T11:30:28.124Z,100269.23
2018-11-11T11:31:29.999Z,100273.92
2018-11-11T11:32:31.734Z,100269.23
2018-11-11T11:33:33.519Z,100270.02
2018-11-11T11:34:35.288Z,100270.53
2018-11-11T11:35:37.078Z,100269.75
2018-11-11T11:36:38.843Z,100274.97
2018-11-11T11:37:40.620Z,100275.88
2018-11-11T11:38:42.393Z,100281.48
2018-11-11T11:39:44.186Z,100274.19
2018-11-11T11:40:46.084Z,100278.48
2018-11-11T11:41:47.868Z,100270.53
2018-11-11T11:42:49.655Z,100276.66
2018-11-11T11:43:51.519Z,100281.09
2018-11-11T11:44:53.382Z,100269.75
2018-11-11T11:45:55.166Z,100282.01
2018-11-11T11:46:56.949Z,100278.09
2018-11-11T11:47:58.728Z,100281.09
2018-11-11T11:49:00.741Z,100280.70
2018-11-11T11:50:02.572Z,100280.70
2018-11-11T11:51:04.385Z,100277.19
2018-11-11T11:52:06.274Z,100277.73
2018-11-11T11:53:08.045Z,100283.70
2018-11-11T11:54:09.803Z,100287.61
2018-11-11T11:55:12.415Z,100282.80
2018-11-11T11:56:15.228Z,100288.82
2018-11-11T11:57:17.022Z,100290.00
2018-11-11T11:58:20.517Z,100287.78
2018-11-11T11:59:22.335Z,100284.26
2018-11-11T12:00:24.175Z,100287.22
2018-11-11T12:01:25.992Z,100284.26
2018-11-11T12:02:27.790Z,100285.00
2018-11-11T12:03:29.600Z,100286.87
2018-11-11T12:04:31.377Z,100283.70
2018-11-11T12:05:33.162Z,100286.87
2018-11-11T12:06:35.019Z,100286.47
2018-11-11T12:07:37.601Z,100286.87
2018-11-11T12:08:39.480Z,100281.66
2018-11-11T12:09:41.161Z,100283.31
2018-11-11T12:10:42.974Z,100288.17
2018-11-11T12:11:44.749Z,100284.26
2018-11-11T12:12:46.510Z,100280.70
2018-11-11T12:13:48.308Z,100285.56
2018-11-11T12:14:50.126Z,100280.34
2018-11-11T12:15:51.922Z,100285.00
2018-11-11T12:16:53.713Z,100280.34
2018-11-11T12:17:55.497Z,100285.92
2018-11-11T12:19:32.679Z,100276.82
2018-11-11T12:20:34.582Z,100278.16